Station Historical Data
Daily Summary for July 6, 2017 Units:  Metric    English   Both
« Previous Day
Next Day »
Daily Weekly Monthly Yearly Custom
  High: Low: Average:
Temperature: 30.3 °C 19.6 °C 24.6 °C
Dew Point: 20.9 °C 14.1 °C 17.7 °C
Humidity: 87% 38% 67%
Wind Speed: 11.3km/h 0km/h 4km/h
Wind Gust: 19.3km/h - -
Wind- - SW
Pressure: 1017.5 hPa 1010.7 hPa -
Precipitation: 0 mm    
Historical Graphs
 
 
Tabular Data for July 6, 2017
Time Temperature Dew Point Pressure Wind Wind Speed Wind Gust Humidity Rainfall Rate (Hourly)
00:04 20.9 °C 15.4 °C 1017.2 hPa Calm     71% 0 mm
00:09 20.8 °C 15.6 °C 1017.5 hPa Calm     72% 0 mm
00:14 20.8 °C 15.6 °C 1017.2 hPa Calm     72% 0 mm
00:19 20.8 °C 15.6 °C 1017.2 hPa Calm     72% 0 mm
00:24 20.8 °C 15.6 °C 1017.2 hPa Calm     72% 0 mm
00:29 20.6 °C 15.6 °C 1017.2 hPa Calm     73% 0 mm
00:34 20.4 °C 15.7 °C 1017.2 hPa Calm     74% 0 mm
00:39 20.4 °C 15.6 °C 1017.2 hPa Calm     74% 0 mm
00:44 20.3 °C 15.6 °C 1016.8 hPa Calm     74% 0 mm
00:49 20.4 °C 15.7 °C 1017.2 hPa Calm     74% 0 mm
00:54 20.6 °C 15.8 °C 1016.8 hPa Calm     74% 0 mm
00:59 20.8 °C 16 °C 1016.8 hPa Calm     74% 0 mm
01:04 20.9 °C 16.3 °C 1016.8 hPa Calm     75% 0 mm
01:09 20.8 °C 16.4 °C 1016.8 hPa Calm     76% 0 mm
01:14 20.7 °C 16.3 °C 1016.8 hPa Calm     76% 0 mm
01:19 20.6 °C 16.4 °C 1016.8 hPa Calm     77% 0 mm
01:24 20.4 °C 16.5 °C 1016.8 hPa Calm     78% 0 mm
01:29 20.4 °C 16.5 °C 1016.8 hPa Calm     78% 0 mm
01:34 20.5 °C 16.7 °C 1016.8 hPa Calm     79% 0 mm
01:39 20.4 °C 16.7 °C 1016.8 hPa Calm     79% 0 mm
01:44 20.4 °C 16.7 °C 1016.8 hPa Calm     79% 0 mm
01:49 20.4 °C 16.7 °C 1016.8 hPa Calm     79% 0 mm
01:54 20.5 °C 16.9 °C 1016.5 hPa Calm   3.2 km/h 80% 0 mm
01:59 20.7 °C 17.3 °C 1016.5 hPa Calm   3.2 km/h 81% 0 mm
02:04 20.6 °C 17.2 °C 1016.5 hPa Calm   1.6 km/h 81% 0 mm
02:09 20.7 °C 17.5 °C 1016.5 hPa Calm     82% 0 mm
02:14 20.7 °C 17.7 °C 1016.5 hPa Calm   4.8 km/h 83% 0 mm
02:19 20.9 °C 17.9 °C 1016.5 hPa SSW 1.6 km/h 4.8 km/h 83% 0 mm
02:24 21 °C 18 °C 1016.5 hPa Calm   4.8 km/h 83% 0 mm
02:29 21.2 °C 18.2 °C 1016.5 hPa SW 1.6 km/h 8 km/h 83% 0 mm
02:34 21.4 °C 18.4 °C 1016.5 hPa SSW 1.6 km/h 8 km/h 83% 0 mm
02:39 21.6 °C 18.3 °C 1016.5 hPa SW 1.6 km/h 4.8 km/h 82% 0 mm
02:44 21.5 °C 18.3 °C 1016.5 hPa SW 1.6 km/h 4.8 km/h 82% 0 mm
02:49 21.5 °C 18.3 °C 1016.1 hPa WSW 1.6 km/h 6.4 km/h 82% 0 mm
02:54 21.6 °C 18.4 °C 1016.5 hPa SW 3.2 km/h 8 km/h 82% 0 mm
02:59 21.6 °C 18.3 °C 1016.1 hPa SW 3.2 km/h 8 km/h 82% 0 mm
03:04 21.6 °C 18.2 °C 1016.1 hPa SSW 1.6 km/h 6.4 km/h 81% 0 mm
03:09 21.5 °C 18.1 °C 1016.1 hPa Calm   6.4 km/h 81% 0 mm
03:14 21.4 °C 18.2 °C 1016.1 hPa SW 1.6 km/h 3.2 km/h 82% 0 mm
03:19 21.4 °C 18.2 °C 1016.1 hPa SW 1.6 km/h 8 km/h 82% 0 mm
03:24 21.5 °C 18.3 °C 1016.1 hPa Calm   8 km/h 82% 0 mm
03:29 21.4 °C 18.1 °C 1016.1 hPa WSW 4.8 km/h 4.8 km/h 81% 0 mm
03:34 21.4 °C 18.2 °C 1016.1 hPa Calm   4.8 km/h 82% 0 mm
03:39 21.3 °C 17.9 °C 1016.1 hPa SW 1.6 km/h 4.8 km/h 81% 0 mm
03:44 21.3 °C 17.9 °C 1016.1 hPa SW 1.6 km/h 6.4 km/h 81% 0 mm
03:49 21.3 °C 17.9 °C 1015.8 hPa SW 1.6 km/h 9.7 km/h 81% 0 mm
03:54 21.3 °C 18.1 °C 1016.1 hPa SW 1.6 km/h 9.7 km/h 82% 0 mm
03:59 21.3 °C 17.9 °C 1015.8 hPa SW 1.6 km/h 4.8 km/h 81% 0 mm
04:04 21.4 °C 18 °C 1015.8 hPa SW 3.2 km/h 6.4 km/h 81% 0 mm
04:09 21.4 °C 18 °C 1015.8 hPa SW 1.6 km/h 8 km/h 81% 0 mm
04:14 21.4 °C 18 °C 1015.8 hPa SW 1.6 km/h 8 km/h 81% 0 mm
04:19 21.3 °C 17.9 °C 1015.8 hPa Calm   6.4 km/h 81% 0 mm
04:24 21.3 °C 17.9 °C 1015.8 hPa SW 3.2 km/h 4.8 km/h 81% 0 mm
04:29 21.2 °C 17.8 °C 1015.8 hPa SW 1.6 km/h 4.8 km/h 81% 0 mm
04:34 21.1 °C 17.9 °C 1015.8 hPa Calm   4.8 km/h 82% 0 mm
04:39 21 °C 17.8 °C 1015.8 hPa Calm   4.8 km/h 82% 0 mm
04:44 20.9 °C 17.7 °C 1015.8 hPa Calm     82% 0 mm
04:49 20.8 °C 17.7 °C 1015.8 hPa Calm     82% 0 mm
05:05 20.7 °C 17.7 °C 1015.8 hPa Calm   3.2 km/h 83% 0 mm
05:15 20.5 °C 17.5 °C 1015.8 hPa Calm   3.2 km/h 83% 0 mm
05:24 20.2 °C 17.4 °C 1015.8 hPa Calm     84% 0 mm
05:25 20.2 °C 17.4 °C 1015.8 hPa Calm     84% 0 mm
05:29 20 °C 17.2 °C 1015.8 hPa Calm     84% 0 mm
05:34 19.9 °C 17.3 °C 1015.8 hPa Calm     85% 0 mm
05:39 19.8 °C 17.4 °C 1015.8 hPa Calm     86% 0 mm
05:44 19.8 °C 17.4 °C 1015.8 hPa Calm     86% 0 mm
05:49 19.7 °C 17.3 °C 1015.8 hPa Calm     86% 0 mm
05:54 19.6 °C 17.2 °C 1015.8 hPa Calm     86% 0 mm
05:59 19.6 °C 17.2 °C 1015.8 hPa Calm     86% 0 mm
06:04 19.6 °C 17.2 °C 1015.8 hPa Calm     86% 0 mm
06:09 19.6 °C 17.3 °C 1015.8 hPa Calm     87% 0 mm
06:14 19.7 °C 17.4 °C 1015.8 hPa Calm   1.6 km/h 87% 0 mm
06:19 19.7 °C 17.5 °C 1015.8 hPa Calm     87% 0 mm
06:24 19.8 °C 17.4 °C 1015.8 hPa Calm     86% 0 mm
06:29 19.9 °C 17.7 °C 1015.8 hPa Calm     87% 0 mm
06:34 20.2 °C 17.7 °C 1015.8 hPa Calm     86% 0 mm
06:39 20.3 °C 17.8 °C 1015.8 hPa Calm     86% 0 mm
06:44 20.4 °C 17.8 °C 1015.8 hPa Calm   4.8 km/h 85% 0 mm
06:49 20.7 °C 18.1 °C 1015.8 hPa Calm   4.8 km/h 85% 0 mm
06:54 20.9 °C 18.1 °C 1015.8 hPa Calm   4.8 km/h 84% 0 mm
06:59 21.2 °C 18.3 °C 1015.8 hPa Calm   3.2 km/h 84% 0 mm
07:04 21.4 °C 18.4 °C 1015.5 hPa SW 3.2 km/h 6.4 km/h 83% 0 mm
07:09 21.6 °C 18.3 °C 1015.5 hPa SW 1.6 km/h 6.4 km/h 82% 0 mm
07:14 21.7 °C 18.3 °C 1015.8 hPa SSW 1.6 km/h 6.4 km/h 81% 0 mm
07:19 21.8 °C 18.4 °C 1015.8 hPa SW 1.6 km/h 6.4 km/h 81% 0 mm
07:24 21.8 °C 18.4 °C 1015.8 hPa SW 3.2 km/h 9.7 km/h 81% 0 mm
07:29 21.9 °C 18.3 °C 1015.8 hPa SW 1.6 km/h 6.4 km/h 80% 0 mm
07:34 22.1 °C 18.4 °C 1015.8 hPa Calm   6.4 km/h 80% 0 mm
07:39 22.2 °C 18.6 °C 1015.8 hPa WSW 3.2 km/h 8 km/h 80% 0 mm
07:44 22.2 °C 18.6 °C 1015.8 hPa WSW 3.2 km/h 6.4 km/h 80% 0 mm
07:49 22.3 °C 18.7 °C 1015.8 hPa SW 4.8 km/h 6.4 km/h 80% 0 mm
07:54 22.7 °C 18.8 °C 1016.1 hPa Calm   4.8 km/h 79% 0 mm
07:59 23.1 °C 19 °C 1015.8 hPa SSW 8 km/h 8 km/h 78% 0 mm
08:04 23.3 °C 19.1 °C 1016.1 hPa SSW 8 km/h 12.9 km/h 77% 0 mm
08:09 23.4 °C 18.9 °C 1016.1 hPa SW 6.4 km/h 12.9 km/h 76% 0 mm
08:14 23.6 °C 19.1 °C 1016.1 hPa SW 6.4 km/h 14.5 km/h 76% 0 mm
08:19 23.8 °C 19.1 °C 1016.1 hPa SW 4.8 km/h 14.5 km/h 75% 0 mm
08:24 23.9 °C 19.2 °C 1016.1 hPa WSW 4.8 km/h 11.3 km/h 75% 0 mm
08:29 24.1 °C 19.3 °C 1016.1 hPa WSW 6.4 km/h 14.5 km/h 75% 0 mm
08:34 24 °C 19.3 °C 1016.1 hPa WSW 8 km/h 14.5 km/h 75% 0 mm
08:39 24.2 °C 19.2 °C 1016.1 hPa SW 4.8 km/h 11.3 km/h 74% 0 mm
08:44 24.2 °C 19.3 °C 1016.1 hPa South 6.4 km/h 12.9 km/h 74% 0 mm
08:49 24.2 °C 19.4 °C 1016.1 hPa WSW 8 km/h 11.3 km/h 75% 0 mm
08:54 24.4 °C 19.5 °C 1016.1 hPa SW 4.8 km/h 9.7 km/h 74% 0 mm
08:59 24.7 °C 19.3 °C 1016.1 hPa West 9.7 km/h 11.3 km/h 72% 0 mm
09:04 24.7 °C 19.5 °C 1016.1 hPa WSW 6.4 km/h 11.3 km/h 73% 0 mm
09:09 24.8 °C 19.4 °C 1016.1 hPa SW 6.4 km/h 16.1 km/h 72% 0 mm
09:14 24.8 °C 19.7 °C 1016.1 hPa WSW 8 km/h 16.1 km/h 73% 0 mm
09:19 24.8 °C 19.4 °C 1016.1 hPa WSW 8 km/h 12.9 km/h 72% 0 mm
09:24 25 °C 19.6 °C 1016.1 hPa WSW 8 km/h 12.9 km/h 72% 0 mm
09:29 25.2 °C 19.8 °C 1016.1 hPa WSW 4.8 km/h 14.5 km/h 72% 0 mm
09:34 24.9 °C 19.5 °C 1016.1 hPa SW 6.4 km/h 14.5 km/h 72% 0 mm
09:39 25.1 °C 19.7 °C 1016.1 hPa SW 8 km/h 14.5 km/h 72% 0 mm
09:44 25.2 °C 20.1 °C 1015.8 hPa West 6.4 km/h 16.1 km/h 73% 0 mm
09:49 25.3 °C 19.9 °C 1016.1 hPa SW 3.2 km/h 16.1 km/h 72% 0 mm
09:54 25.7 °C 20 °C 1015.8 hPa SW 9.7 km/h 16.1 km/h 71% 0 mm
09:59 25.4 °C 19.7 °C 1015.8 hPa SW 11.3 km/h 14.5 km/h 71% 0 mm
10:04 25.7 °C 20.1 °C 1015.8 hPa SW 8 km/h 14.5 km/h 71% 0 mm
10:09 25.3 °C 19.7 °C 1015.8 hPa SW 8 km/h 14.5 km/h 71% 0 mm
10:14 25.2 °C 19.6 °C 1015.8 hPa WSW 6.4 km/h 14.5 km/h 71% 0 mm
10:19 25.7 °C 20.1 °C 1015.8 hPa SW 4.8 km/h 14.5 km/h 71% 0 mm
10:24 25.5 °C 19.6 °C 1015.8 hPa WSW 6.4 km/h 12.9 km/h 70% 0 mm
10:29 25.7 °C 19.8 °C 1015.8 hPa WSW 9.7 km/h 16.1 km/h 70% 0 mm
10:34 25.6 °C 19.9 °C 1015.8 hPa SW 8 km/h 16.1 km/h 71% 0 mm
10:39 25.9 °C 20 °C 1015.8 hPa WSW 8 km/h 16.1 km/h 70% 0 mm
10:44 25.8 °C 19.9 °C 1015.5 hPa WSW 8 km/h 14.5 km/h 70% 0 mm
10:49 25.6 °C 19.5 °C 1015.5 hPa SW 8 km/h 14.5 km/h 69% 0 mm
10:54 25.1 °C 19.5 °C 1015.5 hPa SW 6.4 km/h 14.5 km/h 71% 0 mm
10:59 25.6 °C 20.6 °C 1015.5 hPa South 6.4 km/h 12.9 km/h 74% 0 mm
11:04 26.3 °C 20.4 °C 1015.5 hPa SW 6.4 km/h 12.9 km/h 70% 0 mm
11:09 26.4 °C 19.8 °C 1015.5 hPa SW 6.4 km/h 11.3 km/h 67% 0 mm
11:14 26.1 °C 20 °C 1015.5 hPa SW 6.4 km/h 11.3 km/h 69% 0 mm
11:19 26.2 °C 19.8 °C 1015.1 hPa SW 3.2 km/h 11.3 km/h 68% 0 mm
11:24 25.6 °C 19.4 °C 1015.1 hPa SSW 4.8 km/h 11.3 km/h 69% 0 mm
11:29 25.3 °C 19.7 °C 1015.1 hPa WSW 3.2 km/h 12.9 km/h 71% 0 mm
11:34 25.4 °C 19.8 °C 1015.1 hPa WSW 4.8 km/h 12.9 km/h 71% 0 mm
11:39 26.4 °C 20.5 °C 1015.1 hPa WSW 6.4 km/h 14.5 km/h 70% 0 mm
11:44 26.7 °C 20.3 °C 1015.1 hPa WSW 6.4 km/h 14.5 km/h 68% 0 mm
11:49 26.7 °C 20.1 °C 1015.1 hPa WSW 4.8 km/h 12.9 km/h 67% 0 mm
11:54 26.7 °C 20.1 °C 1014.8 hPa SW 4.8 km/h 16.1 km/h 67% 0 mm
11:59 26.7 °C 20.1 °C 1015.1 hPa SW 4.8 km/h 14.5 km/h 67% 0 mm
12:04 26.3 °C 19.9 °C 1015.1 hPa WSW 4.8 km/h 14.5 km/h 68% 0 mm
12:09 26.3 °C 20.2 °C 1015.1 hPa WSW 6.4 km/h 11.3 km/h 69% 0 mm
12:14 26.4 °C 20.1 °C 1015.1 hPa SSW 8 km/h 14.5 km/h 68% 0 mm
12:19 26.3 °C 19.9 °C 1014.8 hPa SSW 6.4 km/h 14.5 km/h 68% 0 mm
12:24 26.4 °C 20.1 °C 1014.8 hPa SW 11.3 km/h 16.1 km/h 68% 0 mm
12:29 26.3 °C 20.1 °C 1014.8 hPa SW 6.4 km/h 14.5 km/h 69% 0 mm
12:34 26.4 °C 20.1 °C 1014.8 hPa WSW 8 km/h 19.3 km/h 68% 0 mm
12:39 26.4 °C 19.8 °C 1014.8 hPa WSW 6.4 km/h 19.3 km/h 67% 0 mm
12:44 26.4 °C 19.8 °C 1014.8 hPa WSW 6.4 km/h 12.9 km/h 67% 0 mm
12:49 26.9 °C 20.6 °C 1014.8 hPa SW 8 km/h 17.7 km/h 68% 0 mm
12:54 27.2 °C 20.1 °C 1014.8 hPa WSW 6.4 km/h 17.7 km/h 65% 0 mm
12:59 27.3 °C 20.4 °C 1014.4 hPa WSW 6.4 km/h 12.9 km/h 66% 0 mm
13:04 27.5 °C 20.3 °C 1014.4 hPa West 4.8 km/h 12.9 km/h 65% 0 mm
13:09 28 °C 20.6 °C 1014.4 hPa West 4.8 km/h 14.5 km/h 64% 0 mm
13:14 28.3 °C 20.9 °C 1014.4 hPa WSW 3.2 km/h 11.3 km/h 64% 0 mm
13:19 28.7 °C 20.2 °C 1014.4 hPa SW 4.8 km/h 16.1 km/h 60% 0 mm
13:24 28.9 °C 19.8 °C 1014.4 hPa West 6.4 km/h 12.9 km/h 58% 0 mm
13:29 28.4 °C 19.4 °C 1014.8 hPa SSW 6.4 km/h 11.3 km/h 58% 0 mm
13:34 28.9 °C 19.2 °C 1014.4 hPa WSW 6.4 km/h 14.5 km/h 56% 0 mm
13:39 29.1 °C 19.1 °C 1014.4 hPa West 6.4 km/h 14.5 km/h 55% 0 mm
13:44 28.8 °C 18.8 °C 1014.4 hPa WSW 6.4 km/h 19.3 km/h 55% 0 mm
13:49 29.1 °C 18.5 °C 1014.4 hPa WSW 6.4 km/h 19.3 km/h 53% 0 mm
13:54 29.3 °C 18.4 °C 1014.4 hPa WSW 6.4 km/h 16.1 km/h 52% 0 mm
13:59 29.3 °C 17.2 °C 1014.4 hPa WSW 6.4 km/h 14.5 km/h 48% 0 mm
14:04 29.1 °C 17.9 °C 1014.4 hPa WSW 8 km/h 9.7 km/h 51% 0 mm
14:09 29.1 °C 17.3 °C 1014.1 hPa WNW 4.8 km/h 16.1 km/h 49% 0 mm
14:14 29.2 °C 17.7 °C 1014.1 hPa WSW 6.4 km/h 14.5 km/h 50% 0 mm
14:19 29.7 °C 17.2 °C 1014.1 hPa West 3.2 km/h 12.9 km/h 47% 0 mm
14:24 29.4 °C 17.9 °C 1014.1 hPa West 3.2 km/h 16.1 km/h 50% 0 mm
14:29 30.1 °C 17.2 °C 1013.8 hPa West 4.8 km/h 14.5 km/h 46% 0 mm
14:34 29.9 °C 16.3 °C 1013.8 hPa WSW 4.8 km/h 11.3 km/h 44% 0 mm
14:39 30.1 °C 16.8 °C 1013.8 hPa SW 6.4 km/h 16.1 km/h 45% 0 mm
14:44 30.1 °C 15.8 °C 1013.8 hPa SW 6.4 km/h 16.1 km/h 42% 0 mm
14:49 29.9 °C 17.1 °C 1013.8 hPa WSW 6.4 km/h 11.3 km/h 46% 0 mm
14:54 29.9 °C 14.1 °C 1013.8 hPa West 4.8 km/h 14.5 km/h 38% 0 mm
14:59 30.1 °C 16.4 °C 1013.4 hPa West 6.4 km/h 9.7 km/h 44% 0 mm
15:04 29.9 °C 16 °C 1013.4 hPa WSW 11.3 km/h 16.1 km/h 43% 0 mm
15:09 30.3 °C 15.6 °C 1013.4 hPa WSW 6.4 km/h 16.1 km/h 41% 0 mm
15:14 30 °C 16.1 °C 1013.4 hPa WSW 8 km/h 14.5 km/h 43% 0 mm
15:19 29.9 °C 16.3 °C 1013.1 hPa WSW 11.3 km/h 14.5 km/h 44% 0 mm
15:24 29.8 °C 16.6 °C 1012.8 hPa WSW 4.8 km/h 14.5 km/h 45% 0 mm
15:29 30.1 °C 15.8 °C 1012.8 hPa WNW 4.8 km/h 11.3 km/h 42% 0 mm
15:34 29.4 °C 15.9 °C 1012.8 hPa WSW 6.4 km/h 16.1 km/h 44% 0 mm
15:39 29.4 °C 15.5 °C 1012.8 hPa WSW 6.4 km/h 16.1 km/h 43% 0 mm
15:44 29.7 °C 16.1 °C 1012.8 hPa WSW 6.4 km/h 14.5 km/h 44% 0 mm
15:49 29.6 °C 16.4 °C 1012.8 hPa West 6.4 km/h 16.1 km/h 45% 0 mm
15:54 29.8 °C 16.3 °C 1012.8 hPa WSW 11.3 km/h 16.1 km/h 44% 0 mm
15:59 29.5 °C 17 °C 1012.8 hPa South 6.4 km/h 12.9 km/h 47% 0 mm
16:04 29.3 °C 16.1 °C 1012.8 hPa SW 4.8 km/h 16.1 km/h 45% 0 mm
16:09 29.3 °C 16.2 °C 1012.8 hPa SW 8 km/h 16.1 km/h 45% 0 mm
16:14 29.3 °C 16.8 °C 1012.8 hPa WSW 8 km/h 16.1 km/h 47% 0 mm
16:19 29.1 °C 16.6 °C 1012.8 hPa WSW 8 km/h 16.1 km/h 47% 0 mm
16:24 29.3 °C 17.1 °C 1012.8 hPa WSW 4.8 km/h 12.9 km/h 48% 0 mm
16:29 29.4 °C 17.9 °C 1012.8 hPa West 4.8 km/h 14.5 km/h 50% 0 mm
16:34 29.3 °C 16.4 °C 1012.8 hPa SW 11.3 km/h 14.5 km/h 46% 0 mm
16:39 29.1 °C 17.3 °C 1012.4 hPa WSW 8 km/h 14.5 km/h 49% 0 mm
16:44 29.1 °C 17.3 °C 1012.4 hPa West 6.4 km/h 14.5 km/h 49% 0 mm
16:49 28.8 °C 15.7 °C 1012.4 hPa WSW 4.8 km/h 16.1 km/h 45% 0 mm
16:54 28.9 °C 16.1 °C 1012.4 hPa SSW 4.8 km/h 17.7 km/h 46% 0 mm
16:59 28.9 °C 16.8 °C 1012.1 hPa WNW 9.7 km/h 11.3 km/h 48% 0 mm
17:04 28.7 °C 16.2 °C 1012.1 hPa SW 6.4 km/h 16.1 km/h 47% 0 mm
17:09 28.3 °C 16.6 °C 1012.1 hPa WSW 8 km/h 16.1 km/h 49% 0 mm
17:14 28.2 °C 16.8 °C 1012.1 hPa WSW 6.4 km/h 14.5 km/h 50% 0 mm
17:19 28.1 °C 16.3 °C 1012.1 hPa WSW 8 km/h 14.5 km/h 49% 0 mm
17:24 28.1 °C 17 °C 1011.7 hPa SW 4.8 km/h 12.9 km/h 51% 0 mm
17:29 28.1 °C 17.3 °C 1011.7 hPa South 6.4 km/h 11.3 km/h 52% 0 mm
17:34 28.1 °C 17 °C 1011.7 hPa SW 4.8 km/h 14.5 km/h 51% 0 mm
17:39 27.9 °C 17.2 °C 1011.7 hPa West 4.8 km/h 11.3 km/h 52% 0 mm
17:44 27.9 °C 17.5 °C 1011.7 hPa WSW 6.4 km/h 11.3 km/h 53% 0 mm
17:49 27.7 °C 17.2 °C 1011.7 hPa SW 8 km/h 9.7 km/h 53% 0 mm
17:54 27.6 °C 17.2 °C 1011.7 hPa WSW 4.8 km/h 9.7 km/h 53% 0 mm
17:59 27.6 °C 17.7 °C 1011.7 hPa WSW 1.6 km/h 11.3 km/h 55% 0 mm
18:04 27.6 °C 17.4 °C 1011.7 hPa WSW 4.8 km/h 11.3 km/h 54% 0 mm
18:09 27.5 °C 17.7 °C 1011.7 hPa WSW 4.8 km/h 9.7 km/h 55% 0 mm
18:14 27.3 °C 17.5 °C 1011.4 hPa WSW 6.4 km/h 9.7 km/h 55% 0 mm
18:19 27.2 °C 17.3 °C 1011.4 hPa WSW 4.8 km/h 9.7 km/h 55% 0 mm
18:24 27.2 °C 17.4 °C 1011.4 hPa WSW 4.8 km/h 9.7 km/h 55% 0 mm
18:29 27.1 °C 17 °C 1011.4 hPa WNW 1.6 km/h 9.7 km/h 54% 0 mm
18:34 27.1 °C 16.7 °C 1011.4 hPa West 3.2 km/h 9.7 km/h 53% 0 mm
18:39 27 °C 16.9 °C 1011.4 hPa WSW 3.2 km/h 9.7 km/h 54% 0 mm
18:44 26.9 °C 16.5 °C 1011.4 hPa WSW 11.3 km/h 14.5 km/h 53% 0 mm
18:49 26.8 °C 16.7 °C 1011.7 hPa West 8 km/h 11.3 km/h 54% 0 mm
18:54 26.7 °C 16.6 °C 1011.7 hPa West 8 km/h 11.3 km/h 54% 0 mm
18:59 26.7 °C 17.2 °C 1011.7 hPa SW 3.2 km/h 9.7 km/h 56% 0 mm
19:04 26.6 °C 16.8 °C 1011.7 hPa WSW 4.8 km/h 11.3 km/h 55% 0 mm
19:09 26.4 °C 16.6 °C 1011.7 hPa SW 4.8 km/h 11.3 km/h 55% 0 mm
19:14 26.2 °C 16.7 °C 1011.7 hPa SW 4.8 km/h 11.3 km/h 56% 0 mm
19:19 26.1 °C 16.6 °C 1011.7 hPa WSW 4.8 km/h 12.9 km/h 56% 0 mm
19:24 25.9 °C 16.5 °C 1011.7 hPa SW 6.4 km/h 14.5 km/h 56% 0 mm
19:29 25.8 °C 16.7 °C 1011.7 hPa SW 6.4 km/h 14.5 km/h 57% 0 mm
19:34 25.8 °C 16.9 °C 1011.7 hPa WSW 6.4 km/h 9.7 km/h 58% 0 mm
19:39 25.7 °C 17.1 °C 1011.7 hPa SW 4.8 km/h 9.7 km/h 59% 0 mm
19:44 25.7 °C 16.8 °C 1011.7 hPa SW 6.4 km/h 11.3 km/h 58% 0 mm
19:49 25.6 °C 16.9 °C 1011.7 hPa WSW 4.8 km/h 9.7 km/h 59% 0 mm
19:54 25.6 °C 16.9 °C 1011.7 hPa West 6.4 km/h 8 km/h 59% 0 mm
19:59 25.4 °C 16.8 °C 1011.7 hPa WSW 3.2 km/h 8 km/h 59% 0 mm
20:04 25.3 °C 17 °C 1011.7 hPa WSW 4.8 km/h 11.3 km/h 60% 0 mm
20:09 25.3 °C 16.9 °C 1011.7 hPa SW 4.8 km/h 11.3 km/h 60% 0 mm
20:14 25.2 °C 17.2 °C 1011.4 hPa SW 6.4 km/h 11.3 km/h 61% 0 mm
20:19 25.1 °C 17.1 °C 1011.4 hPa SW 6.4 km/h 14.5 km/h 61% 0 mm
20:24 25.1 °C 17 °C 1011.4 hPa SW 6.4 km/h 14.5 km/h 61% 0 mm
20:29 25 °C 16.9 °C 1011.4 hPa SW 4.8 km/h 14.5 km/h 61% 0 mm
20:34 24.9 °C 16.6 °C 1011.4 hPa WSW 1.6 km/h 9.7 km/h 60% 0 mm
20:39 24.9 °C 16.8 °C 1011.4 hPa South 3.2 km/h 9.7 km/h 61% 0 mm
20:44 24.7 °C 16.9 °C 1011.4 hPa South 6.4 km/h 9.7 km/h 62% 0 mm
20:49 24.6 °C 17.3 °C 1011.4 hPa SW 4.8 km/h 11.3 km/h 64% 0 mm
20:54 24.4 °C 17.1 °C 1011.4 hPa WSW 1.6 km/h 9.7 km/h 64% 0 mm
20:59 24.3 °C 17.3 °C 1011.4 hPa South 1.6 km/h 8 km/h 65% 0 mm
21:04 24.2 °C 16.9 °C 1011.4 hPa SW 4.8 km/h 11.3 km/h 64% 0 mm
21:09 24.2 °C 17.2 °C 1011.7 hPa SW 4.8 km/h 11.3 km/h 65% 0 mm
21:14 24.2 °C 17.2 °C 1011.7 hPa SW 4.8 km/h 8 km/h 65% 0 mm
21:19 24.2 °C 17.2 °C 1011.7 hPa SW 3.2 km/h 8 km/h 65% 0 mm
21:24 24.2 °C 17.2 °C 1011.7 hPa SSE 1.6 km/h 8 km/h 65% 0 mm
21:29 24.1 °C 16.6 °C 1011.7 hPa SW 3.2 km/h 9.7 km/h 63% 0 mm
21:34 24 °C 16.5 °C 1011.7 hPa SW 3.2 km/h 9.7 km/h 63% 0 mm
21:39 23.9 °C 16.2 °C 1011.7 hPa SW 3.2 km/h 8 km/h 62% 0 mm
21:44 24 °C 16.3 °C 1011.7 hPa WSW 4.8 km/h 8 km/h 62% 0 mm
21:49 23.9 °C 16.2 °C 1011.7 hPa SW 3.2 km/h 9.7 km/h 62% 0 mm
21:54 23.8 °C 16.1 °C 1011.7 hPa SW 1.6 km/h 6.4 km/h 62% 0 mm
21:59 23.7 °C 16.2 °C 1011.7 hPa SW 1.6 km/h 4.8 km/h 63% 0 mm
22:04 23.7 °C 16.2 °C 1011.7 hPa SW 3.2 km/h 8 km/h 63% 0 mm
22:09 23.7 °C 16.3 °C 1012.1 hPa SW 1.6 km/h 8 km/h 63% 0 mm
22:14 23.8 °C 16.3 °C 1012.1 hPa SW 1.6 km/h 4.8 km/h 63% 0 mm
22:19 23.8 °C 16.4 °C 1011.7 hPa SW 1.6 km/h 4.8 km/h 63% 0 mm
22:24 23.8 °C 16.1 °C 1011.7 hPa SW 1.6 km/h 8 km/h 62% 0 mm
22:29 23.8 °C 16.1 °C 1011.7 hPa SW 3.2 km/h 9.7 km/h 62% 0 mm
22:34 23.7 °C 15.8 °C 1011.4 hPa SSW 3.2 km/h 11.3 km/h 61% 0 mm
22:39 23.7 °C 15.4 °C 1011.4 hPa SSW 4.8 km/h 11.3 km/h 60% 0 mm
22:44 23.7 °C 15.4 °C 1011.4 hPa SSW 4.8 km/h 11.3 km/h 60% 0 mm
22:49 23.6 °C 15.4 °C 1011.4 hPa SW 3.2 km/h 9.7 km/h 60% 0 mm
22:54 23.6 °C 15.4 °C 1011.1 hPa SSW 3.2 km/h 8 km/h 60% 0 mm
22:59 23.5 °C 15.6 °C 1011.1 hPa SSW 1.6 km/h 8 km/h 61% 0 mm
23:04 23.4 °C 15.4 °C 1011.4 hPa SW 1.6 km/h 3.2 km/h 61% 0 mm
23:09 23.2 °C 15.3 °C 1011.4 hPa SW 3.2 km/h 4.8 km/h 61% 0 mm
23:14 23.2 °C 15.5 °C 1011.4 hPa SW 1.6 km/h 8 km/h 62% 0 mm
23:19 23.1 °C 15.2 °C 1011.1 hPa WSW 3.2 km/h 4.8 km/h 61% 0 mm
23:24 23.2 °C 15.2 °C 1011.1 hPa WSW 1.6 km/h 4.8 km/h 61% 0 mm
23:29 23.3 °C 15.3 °C 1010.7 hPa WSW 1.6 km/h 4.8 km/h 61% 0 mm
23:34 23.2 °C 15.5 °C 1010.7 hPa Calm   4.8 km/h 62% 0 mm
23:39 23 °C 15.3 °C 1010.7 hPa Calm     62% 0 mm
23:44 23 °C 15.6 °C 1011.1 hPa Calm     63% 0 mm
23:49 23.1 °C 15.7 °C 1011.1 hPa Calm     63% 0 mm
23:54 23.2 °C 15.7 °C 1011.1 hPa Calm     63% 0 mm
23:59 23.3 °C 15.8 °C 1011.1 hPa Calm     63% 0 mm
Buffalo, New York, USA
Compliments of Weather Underground - 2.5 mb